sensor_id;sensor_type;location;lat;lon;timestamp;pressure;altitude;pressure_sealevel;temperature;humidity
13314;BME280;6725;48.112;11.604;2023-04-19T00:02:00;94858.69;;;8.87;100.00
13314;BME280;6725;48.112;11.604;2023-04-19T00:04:26;94850.06;;;8.92;100.00
13314;BME280;6725;48.112;11.604;2023-04-19T00:06:52;94844.69;;;8.85;100.00
13314;BME280;6725;48.112;11.604;2023-04-19T00:09:17;94837.66;;;8.91;100.00
13314;BME280;6725;48.112;11.604;2023-04-19T00:11:43;94836.88;;;8.91;100.00
13314;BME280;6725;48.112;11.604;2023-04-19T00:14:08;94828.00;;;8.83;100.00
13314;BME280;6725;48.112;11.604;2023-04-19T00:16:34;94818.69;;;8.81;100.00
13314;BME280;6725;48.112;11.604;2023-04-19T00:18:59;94808.22;;;8.79;100.00
13314;BME280;6725;48.112;11.604;2023-04-19T00:21:25;94808.13;;;8.86;100.00
13314;BME280;6725;48.112;11.604;2023-04-19T00:23:51;94807.41;;;8.82;100.00
13314;BME280;6725;48.112;11.604;2023-04-19T00:26:18;94809.78;;;8.80;100.00
13314;BME280;6725;48.112;11.604;2023-04-19T00:28:43;94813.56;;;8.86;100.00
13314;BME280;6725;48.112;11.604;2023-04-19T00:31:09;94808.22;;;8.79;100.00
13314;BME280;6725;48.112;11.604;2023-04-19T00:33:34;94812.50;;;8.80;100.00
13314;BME280;6725;48.112;11.604;2023-04-19T00:35:59;94817.47;;;8.85;100.00
13314;BME280;6725;48.112;11.604;2023-04-19T00:38:25;94804.66;;;8.86;100.00
13314;BME280;6725;48.112;11.604;2023-04-19T00:40:50;94815.22;;;8.80;100.00
13314;BME280;6725;48.112;11.604;2023-04-19T00:43:17;94803.88;;;8.85;100.00
13314;BME280;6725;48.112;11.604;2023-04-19T00:45:42;94810.53;;;8.81;100.00
13314;BME280;6725;48.112;11.604;2023-04-19T00:48:08;94805.41;;;8.86;100.00
13314;BME280;6725;48.112;11.604;2023-04-19T00:50:34;94802.69;;;8.86;100.00
13314;BME280;6725;48.112;11.604;2023-04-19T00:53:00;94817.94;;;8.80;100.00
13314;BME280;6725;48.112;11.604;2023-04-19T00:55:26;94819.13;;;8.79;100.00
13314;BME280;6725;48.112;11.604;2023-04-19T00:57:52;94825.28;;;8.83;100.00
13314;BME280;6725;48.112;11.604;2023-04-19T01:00:18;94819.19;;;8.72;100.00
13314;BME280;6725;48.112;11.604;2023-04-19T01:02:44;94813.81;;;8.65;100.00
13314;BME280;6725;48.112;11.604;2023-04-19T01:05:09;94809.91;;;8.66;100.00
13314;BME280;6725;48.112;11.604;2023-04-19T01:07:35;94815.34;;;8.66;100.00
13314;BME280;6725;48.112;11.604;2023-04-19T01:10:00;94815.34;;;8.66;100.00
13314;BME280;6725;48.112;11.604;2023-04-19T01:12:26;94811.44;;;8.67;100.00
13314;BME280;6725;48.112;11.604;2023-04-19T01:14:51;94804.47;;;8.66;100.00
13314;BME280;6725;48.112;11.604;2023-04-19T01:17:18;94807.47;;;8.75;100.00
13314;BME280;6725;48.112;11.604;2023-04-19T01:19:43;94797.41;;;8.72;100.00
13314;BME280;6725;48.112;11.604;2023-04-19T01:22:09;94800.53;;;8.71;100.00
13314;BME280;6725;48.112;11.604;2023-04-19T01:24:34;94798.38;;;8.55;100.00
13314;BME280;6725;48.112;11.604;2023-04-19T01:27:00;94793.19;;;8.64;100.00
13314;BME280;6725;48.112;11.604;2023-04-19T01:29:29;94796.38;;;8.59;100.00
13314;BME280;6725;48.112;11.604;2023-04-19T01:31:54;94793.63;;;8.63;100.00
13314;BME280;6725;48.112;11.604;2023-04-19T01:34:20;94787.41;;;8.62;100.00
13314;BME280;6725;48.112;11.604;2023-04-19T01:36:47;94787.34;;;8.69;100.00
13314;BME280;6725;48.112;11.604;2023-04-19T01:39:12;94778.84;;;8.64;100.00
13314;BME280;6725;48.112;11.604;2023-04-19T01:41:38;94780.75;;;8.67;100.00
13314;BME280;6725;48.112;11.604;2023-04-19T01:44:03;94779.97;;;8.66;100.00
13314;BME280;6725;48.112;11.604;2023-04-19T01:46:28;94778.44;;;8.65;100.00
13314;BME280;6725;48.112;11.604;2023-04-19T01:48:54;94775.72;;;8.65;100.00
13314;BME280;6725;48.112;11.604;2023-04-19T01:51:19;94780.09;;;8.56;100.00
13314;BME280;6725;48.112;11.604;2023-04-19T01:53:46;94759.00;;;8.63;100.00
13314;BME280;6725;48.112;11.604;2023-04-19T01:56:16;94751.97;;;8.66;100.00
13314;BME280;6725;48.112;11.604;2023-04-19T01:58:42;94754.75;;;8.62;100.00
13314;BME280;6725;48.112;11.604;2023-04-19T02:01:07;94738.88;;;8.57;100.00
13314;BME280;6725;48.112;11.604;2023-04-19T02:03:36;94632.88;;;8.47;100.00
13314;BME280;6725;48.112;11.604;2023-04-19T02:06:02;94597.06;;;8.52;100.00
13314;BME280;6725;48.112;11.604;2023-04-19T02:08:27;94573.72;;;8.54;100.00
13314;BME280;6725;48.112;11.604;2023-04-19T02:10:52;94550.75;;;8.55;100.00
13314;BME280;6725;48.112;11.604;2023-04-19T02:13:18;94538.69;;;8.56;100.00
13314;BME280;6725;48.112;11.604;2023-04-19T02:15:43;94509.13;;;8.58;100.00
13314;BME280;6725;48.112;11.604;2023-04-19T02:18:08;94498.25;;;8.58;100.00
13314;BME280;6725;48.112;11.604;2023-04-19T02:20:34;94478.09;;;8.52;100.00
13314;BME280;6725;48.112;11.604;2023-04-19T02:22:59;94460.78;;;8.43;100.00
13314;BME280;6725;48.112;11.604;2023-04-19T02:25:25;94443.97;;;8.48;100.00
13314;BME280;6725;48.112;11.604;2023-04-19T02:27:50;94423.09;;;8.41;100.00
13314;BME280;6725;48.112;11.604;2023-04-19T02:30:15;94395.44;;;8.46;100.00
13314;BME280;6725;48.112;11.604;2023-04-19T02:32:41;94374.84;;;8.45;100.00
13314;BME280;6725;48.112;11.604;2023-04-19T02:35:06;94354.56;;;8.50;100.00
13314;BME280;6725;48.112;11.604;2023-04-19T02:37:32;94338.31;;;8.46;100.00
13314;BME280;6725;48.112;11.604;2023-04-19T02:39:57;94326.66;;;8.46;100.00
13314;BME280;6725;48.112;11.604;2023-04-19T02:42:23;94313.59;;;8.37;100.00
13314;BME280;6725;48.112;11.604;2023-04-19T02:44:48;94298.50;;;8.33;100.00
13314;BME280;6725;48.112;11.604;2023-04-19T02:47:13;94276.41;;;8.31;100.00
13314;BME280;6725;48.112;11.604;2023-04-19T02:49:39;94267.75;;;8.36;100.00
13314;BME280;6725;48.112;11.604;2023-04-19T02:52:06;94258.91;;;8.32;100.00
13314;BME280;6725;48.112;11.604;2023-04-19T02:54:32;94260.00;;;8.34;100.00
13314;BME280;6725;48.112;11.604;2023-04-19T02:56:57;94238.63;;;8.36;100.00
13314;BME280;6725;48.112;11.604;2023-04-19T02:59:23;94225.06;;;8.33;100.00
13314;BME280;6725;48.112;11.604;2023-04-19T03:01:48;94211.88;;;8.31;100.00
13314;BME280;6725;48.112;11.604;2023-04-19T03:04:13;94188.41;;;8.41;100.00
13314;BME280;6725;48.112;11.604;2023-04-19T03:06:39;94179.75;;;8.46;100.00
13314;BME280;6725;48.112;11.604;2023-04-19T03:09:05;94174.03;;;8.40;100.00
13314;BME280;6725;48.112;11.604;2023-04-19T03:11:31;94160.22;;;8.31;100.00
13314;BME280;6725;48.112;11.604;2023-04-19T03:13:56;94157.06;;;8.33;100.00
13314;BME280;6725;48.112;11.604;2023-04-19T03:16:21;94145.78;;;8.34;100.00
13314;BME280;6725;48.112;11.604;2023-04-19T03:18:47;94124.72;;;8.38;100.00
13314;BME280;6725;48.112;11.604;2023-04-19T03:21:12;94115.44;;;8.36;100.00
13314;BME280;6725;48.112;11.604;2023-04-19T03:23:37;94109.25;;;8.35;100.00
13314;BME280;6725;48.112;11.604;2023-04-19T03:26:03;94098.03;;;8.33;100.00
13314;BME280;6725;48.112;11.604;2023-04-19T03:28:28;94094.47;;;8.36;100.00
13314;BME280;6725;48.112;11.604;2023-04-19T03:30:54;94094.38;;;8.40;100.00
13314;BME280;6725;48.112;11.604;2023-04-19T03:33:19;94096.66;;;8.25;100.00
13314;BME280;6725;48.112;11.604;2023-04-19T03:35:45;94081.34;;;8.31;100.00
13314;BME280;6725;48.112;11.604;2023-04-19T03:38:10;94082.28;;;8.25;100.00
13314;BME280;6725;48.112;11.604;2023-04-19T03:40:36;94078.28;;;8.29;100.00
13314;BME280;6725;48.112;11.604;2023-04-19T03:43:02;94072.78;;;8.33;100.00
13314;BME280;6725;48.112;11.604;2023-04-19T03:45:27;94072.28;;;8.18;100.00
13314;BME280;6725;48.112;11.604;2023-04-19T03:47:53;94068.25;;;8.26;100.00
13314;BME280;6725;48.112;11.604;2023-04-19T03:50:18;94075.06;;;8.15;100.00
13314;BME280;6725;48.112;11.604;2023-04-19T03:52:43;94076.19;;;8.17;100.00
13314;BME280;6725;48.112;11.604;2023-04-19T03:55:09;94072.16;;;8.25;100.00
13314;BME280;6725;48.112;11.604;2023-04-19T03:57:36;94070.28;;;8.22;100.00
13314;BME280;6725;48.112;11.604;2023-04-19T04:00:03;94071.47;;;8.21;100.00
13314;BME280;6725;48.112;11.604;2023-04-19T04:02:31;94077.34;;;8.16;100.00
13314;BME280;6725;48.112;11.604;2023-04-19T04:04:57;94069.56;;;8.18;100.00
13314;BME280;6725;48.112;11.604;2023-04-19T04:07:22;94071.47;;;8.21;100.00
13314;BME280;6725;48.112;11.604;2023-04-19T04:09:48;94062.94;;;8.19;100.00
13314;BME280;6725;48.112;11.604;2023-04-19T04:12:14;94071.09;;;8.19;100.00
13314;BME280;6725;48.112;11.604;2023-04-19T04:14:40;94071.06;;;8.23;100.00
13314;BME280;6725;48.112;11.604;2023-04-19T04:17:05;94073.00;;;8.22;100.00
13314;BME280;6725;48.112;11.604;2023-04-19T04:19:30;94071.81;;;8.23;100.00
13314;BME280;6725;48.112;11.604;2023-04-19T04:21:55;94064.69;;;8.29;100.00
13314;BME280;6725;48.112;11.604;2023-04-19T04:24:21;94066.59;;;8.32;100.00
13314;BME280;6725;48.112;11.604;2023-04-19T04:26:47;94062.81;;;8.26;100.00
13314;BME280;6725;48.112;11.604;2023-04-19T04:29:14;94051.88;;;8.30;100.00
13314;BME280;6725;48.112;11.604;2023-04-19T04:31:39;94053.31;;;8.34;100.00
13314;BME280;6725;48.112;11.604;2023-04-19T04:34:05;94054.16;;;8.31;100.00
13314;BME280;6725;48.112;11.604;2023-04-19T04:36:30;94055.00;;;8.28;100.00
13314;BME280;6725;48.112;11.604;2023-04-19T04:38:56;94058.91;;;8.27;100.00
13314;BME280;6725;48.112;11.604;2023-04-19T04:41:21;94056.53;;;8.29;100.00
13314;BME280;6725;48.112;11.604;2023-04-19T04:43:47;94059.03;;;8.20;100.00
13314;BME280;6725;48.112;11.604;2023-04-19T04:46:15;94059.75;;;8.24;100.00
13314;BME280;6725;48.112;11.604;2023-04-19T04:48:40;94052.78;;;8.23;100.00
13314;BME280;6725;48.112;11.604;2023-04-19T04:51:06;94052.19;;;8.12;100.00
13314;BME280;6725;48.112;11.604;2023-04-19T04:53:31;94044.41;;;8.14;100.00
13314;BME280;6725;48.112;11.604;2023-04-19T04:55:57;94042.69;;;8.24;100.00
13314;BME280;6725;48.112;11.604;2023-04-19T04:58:22;94043.09;;;8.22;100.00
13314;BME280;6725;48.112;11.604;2023-04-19T05:00:47;94038.13;;;8.17;100.00
13314;BME280;6725;48.112;11.604;2023-04-19T05:03:13;94033.03;;;8.19;100.00
13314;BME280;6725;48.112;11.604;2023-04-19T05:05:39;94023.66;;;8.20;100.00
13314;BME280;6725;48.112;11.604;2023-04-19T05:08:04;94024.69;;;8.30;100.00
13314;BME280;6725;48.112;11.604;2023-04-19T05:10:30;94014.41;;;8.37;100.00
13314;BME280;6725;48.112;11.604;2023-04-19T05:12:55;94021.50;;;8.31;100.00
13314;BME280;6725;48.112;11.604;2023-04-19T05:15:21;94016.28;;;8.40;100.00
13314;BME280;6725;48.112;11.604;2023-04-19T05:17:46;94024.69;;;8.30;100.00
13314;BME280;6725;48.112;11.604;2023-04-19T05:20:12;94026.63;;;8.29;100.00
13314;BME280;6725;48.112;11.604;2023-04-19T05:22:38;94027.81;;;8.28;100.00
13314;BME280;6725;48.112;11.604;2023-04-19T05:25:04;94032.41;;;8.31;100.00
13314;BME280;6725;48.112;11.604;2023-04-19T05:27:30;94039.72;;;8.34;100.00
13314;BME280;6725;48.112;11.604;2023-04-19T05:29:55;94036.66;;;8.32;100.00
13314;BME280;6725;48.112;11.604;2023-04-19T05:32:20;94025.63;;;8.39;100.00
13314;BME280;6725;48.112;11.604;2023-04-19T05:34:46;94037.53;;;8.45;100.00
13314;BME280;6725;48.112;11.604;2023-04-19T05:37:11;94041.75;;;8.30;100.00
13314;BME280;6725;48.112;11.604;2023-04-19T05:39:36;94042.94;;;8.29;100.00
13314;BME280;6725;48.112;11.604;2023-04-19T05:42:02;94047.53;;;8.32;100.00
13314;BME280;6725;48.112;11.604;2023-04-19T05:44:27;94053.47;;;8.27;100.00
13314;BME280;6725;48.112;11.604;2023-04-19T05:46:53;94058.06;;;8.30;100.00
13314;BME280;6725;48.112;11.604;2023-04-19T05:49:18;94063.59;;;8.27;100.00
13314;BME280;6725;48.112;11.604;2023-04-19T05:51:43;94067.97;;;8.40;100.00
13314;BME280;6725;48.112;11.604;2023-04-19T05:54:09;94067.81;;;8.47;100.00
13314;BME280;6725;48.112;11.604;2023-04-19T05:56:37;94069.47;;;8.41;100.00
13314;BME280;6725;48.112;11.604;2023-04-19T05:59:02;94078.47;;;8.38;100.00
13314;BME280;6725;48.112;11.604;2023-04-19T06:01:28;94082.94;;;8.48;100.00
13314;BME280;6725;48.112;11.604;2023-04-19T06:03:53;94085.59;;;8.52;100.00
13314;BME280;6725;48.112;11.604;2023-04-19T06:06:20;94089.91;;;8.49;100.00
13314;BME280;6725;48.112;11.604;2023-04-19T06:08:46;94099.88;;;8.56;100.00
13314;BME280;6725;48.112;11.604;2023-04-19T06:11:11;94103.56;;;8.65;100.00
13314;BME280;6725;48.112;11.604;2023-04-19T06:13:36;94105.44;;;8.68;100.00
13314;BME280;6725;48.112;11.604;2023-04-19T06:16:02;94121.75;;;8.68;100.00
13314;BME280;6725;48.112;11.604;2023-04-19T06:18:27;94123.19;;;8.73;100.00
13314;BME280;6725;48.112;11.604;2023-04-19T06:20:53;94146.34;;;8.45;100.00
13314;BME280;6725;48.112;11.604;2023-04-19T06:23:18;94173.34;;;8.36;100.00
13314;BME280;6725;48.112;11.604;2023-04-19T06:25:44;94174.38;;;8.42;100.00
13314;BME280;6725;48.112;11.604;2023-04-19T06:28:10;94187.63;;;8.40;100.00
13314;BME280;6725;48.112;11.604;2023-04-19T06:30:35;94203.59;;;8.38;100.00
13314;BME280;6725;48.112;11.604;2023-04-19T06:33:01;94217.19;;;8.38;100.00
13314;BME280;6725;48.112;11.604;2023-04-19T06:35:26;94236.59;;;8.40;100.00
13314;BME280;6725;48.112;11.604;2023-04-19T06:37:51;94243.56;;;8.41;100.00
13314;BME280;6725;48.112;11.604;2023-04-19T06:40:17;94251.19;;;8.50;100.00
13314;BME280;6725;48.112;11.604;2023-04-19T06:42:42;94269.16;;;8.44;100.00
13314;BME280;6725;48.112;11.604;2023-04-19T06:45:08;94285.44;;;8.47;100.00
13314;BME280;6725;48.112;11.604;2023-04-19T06:47:34;94290.78;;;8.51;100.00
13314;BME280;6725;48.112;11.604;2023-04-19T06:49:59;94292.97;;;8.59;100.00
13314;BME280;6725;48.112;11.604;2023-04-19T06:52:25;94300.19;;;8.69;100.00
13314;BME280;6725;48.112;11.604;2023-04-19T06:54:50;94307.97;;;8.67;100.00
13314;BME280;6725;48.112;11.604;2023-04-19T06:57:16;94314.63;;;8.66;100.00
13314;BME280;6725;48.112;11.604;2023-04-19T06:59:42;94316.00;;;8.74;100.00
13314;BME280;6725;48.112;11.604;2023-04-19T07:02:08;94339.59;;;8.61;100.00
13314;BME280;6725;48.112;11.604;2023-04-19T07:04:33;94352.00;;;8.62;100.00
13314;BME280;6725;48.112;11.604;2023-04-19T07:06:58;94357.19;;;8.76;100.00
13314;BME280;6725;48.112;11.604;2023-04-19T07:09:25;94385.72;;;8.68;100.00
13314;BME280;6725;48.112;11.604;2023-04-19T07:11:50;94410.22;;;8.68;100.00
13314;BME280;6725;48.112;11.604;2023-04-19T07:14:16;94436.97;;;8.73;100.00
13314;BME280;6725;48.112;11.604;2023-04-19T07:16:44;94484.41;;;8.72;100.00
13314;BME280;6725;48.112;11.604;2023-04-19T07:19:10;94532.25;;;8.70;100.00
13314;BME280;6725;48.112;11.604;2023-04-19T07:21:35;94554.00;;;8.73;100.00
13314;BME280;6725;48.112;11.604;2023-04-19T07:24:03;94564.41;;;8.78;100.00
13314;BME280;6725;48.112;11.604;2023-04-19T07:26:28;94565.50;;;8.84;100.00
13314;BME280;6725;48.112;11.604;2023-04-19T07:28:54;94569.22;;;8.94;100.00
13314;BME280;6725;48.112;11.604;2023-04-19T07:31:19;94573.88;;;8.93;100.00
13314;BME280;6725;48.112;11.604;2023-04-19T07:33:45;94601.69;;;8.81;100.00
13314;BME280;6725;48.112;11.604;2023-04-19T07:36:11;94603.22;;;8.82;100.00
13314;BME280;6725;48.112;11.604;2023-04-19T07:38:36;94607.50;;;8.83;100.00
13314;BME280;6725;48.112;11.604;2023-04-19T07:41:02;94618.03;;;8.81;100.00
13314;BME280;6725;48.112;11.604;2023-04-19T07:43:28;94608.97;;;8.88;100.00
13314;BME280;6725;48.112;11.604;2023-04-19T07:45:54;94593.94;;;9.06;100.00
13314;BME280;6725;48.112;11.604;2023-04-19T07:48:20;94585.94;;;9.19;100.00
13314;BME280;6725;48.112;11.604;2023-04-19T07:50:45;94607.75;;;9.19;100.00
13314;BME280;6725;48.112;11.604;2023-04-19T07:53:11;94605.91;;;9.35;100.00
13314;BME280;6725;48.112;11.604;2023-04-19T07:55:36;94622.97;;;9.39;100.00
13314;BME280;6725;48.112;11.604;2023-04-19T07:58:01;94618.59;;;9.68;100.00
13314;BME280;6725;48.112;11.604;2023-04-19T08:00:27;94628.41;;;9.85;100.00
13314;BME280;6725;48.112;11.604;2023-04-19T08:02:55;94623.50;;;10.20;100.00
13314;BME280;6725;48.112;11.604;2023-04-19T08:05:21;94635.97;;;10.60;100.00
13314;BME280;6725;48.112;11.604;2023-04-19T08:07:47;94727.66;;;10.77;100.00
13314;BME280;6725;48.112;11.604;2023-04-19T08:10:13;94824.25;;;10.86;100.00
13314;BME280;6725;48.112;11.604;2023-04-19T08:12:39;94927.03;;;10.77;100.00
13314;BME280;6725;48.112;11.604;2023-04-19T08:15:06;94978.94;;;11.00;100.00
13314;BME280;6725;48.112;11.604;2023-04-19T08:17:32;95030.38;;;11.05;100.00
13314;BME280;6725;48.112;11.604;2023-04-19T08:19:57;95050.22;;;11.32;100.00
13314;BME280;6725;48.112;11.604;2023-04-19T08:22:22;95098.75;;;11.51;100.00
13314;BME280;6725;48.112;11.604;2023-04-19T08:24:49;95136.47;;;11.63;100.00
13314;BME280;6725;48.112;11.604;2023-04-19T08:27:16;95172.63;;;11.74;100.00
13314;BME280;6725;48.112;11.604;2023-04-19T08:29:42;95197.38;;;11.90;100.00
13314;BME280;6725;48.112;11.604;2023-04-19T08:32:08;95240.84;;;11.84;100.00
13314;BME280;6725;48.112;11.604;2023-04-19T08:34:34;95259.59;;;11.86;100.00
13314;BME280;6725;48.112;11.604;2023-04-19T08:37:00;95290.38;;;11.93;100.00
13314;BME280;6725;48.112;11.604;2023-04-19T08:39:26;95311.13;;;11.91;100.00
13314;BME280;6725;48.112;11.604;2023-04-19T08:41:51;95317.56;;;12.04;100.00
13314;BME280;6725;48.112;11.604;2023-04-19T08:44:17;95323.19;;;12.20;100.00
13314;BME280;6725;48.112;11.604;2023-04-19T08:46:44;95343.81;;;12.01;100.00
13314;BME280;6725;48.112;11.604;2023-04-19T08:49:10;95357.06;;;12.03;100.00
13314;BME280;6725;48.112;11.604;2023-04-19T08:51:37;95367.00;;;12.20;100.00
13314;BME280;6725;48.112;11.604;2023-04-19T08:54:05;95367.53;;;12.34;100.00
13314;BME280;6725;48.112;11.604;2023-04-19T08:56:31;95380.25;;;12.21;100.00
13314;BME280;6725;48.112;11.604;2023-04-19T08:58:57;95399.09;;;12.16;100.00
13314;BME280;6725;48.112;11.604;2023-04-19T09:01:22;95409.44;;;12.05;100.00
13314;BME280;6725;48.112;11.604;2023-04-19T09:03:47;95399.97;;;12.09;100.00
13314;BME280;6725;48.112;11.604;2023-04-19T09:06:13;95392.19;;;12.08;100.00
13314;BME280;6725;48.112;11.604;2023-04-19T09:08:39;95383.81;;;11.92;100.00
13314;BME280;6725;48.112;11.604;2023-04-19T09:11:05;95372.25;;;11.81;100.00
13314;BME280;6725;48.112;11.604;2023-04-19T09:13:31;95360.56;;;11.77;100.00
13314;BME280;6725;48.112;11.604;2023-04-19T09:15:57;95341.22;;;11.91;100.00
13314;BME280;6725;48.112;11.604;2023-04-19T09:18:24;95329.66;;;11.80;100.00
13314;BME280;6725;48.112;11.604;2023-04-19T09:20:51;95330.38;;;11.84;100.00
13314;BME280;6725;48.112;11.604;2023-04-19T09:23:23;95328.19;;;11.98;100.00
13314;BME280;6725;48.112;11.604;2023-04-19T09:28:18;95323.41;;;12.06;100.00
13314;BME280;6725;48.112;11.604;2023-04-19T09:30:43;95320.16;;;12.14;100.00
13314;BME280;6725;48.112;11.604;2023-04-19T09:33:08;95314.50;;;12.25;100.00
13314;BME280;6725;48.112;11.604;2023-04-19T09:35:45;95320.81;;;12.22;100.00
13314;BME280;6725;48.112;11.604;2023-04-19T09:38:13;95309.28;;;12.57;100.00
13314;BME280;6725;48.112;11.604;2023-04-19T09:40:39;95312.34;;;13.05;100.00
13314;BME280;6725;48.112;11.604;2023-04-19T09:43:05;95322.69;;;13.37;100.00
13314;BME280;6725;48.112;11.604;2023-04-19T09:45:41;95332.38;;;13.96;100.00
13314;BME280;6725;48.112;11.604;2023-04-19T09:48:08;95349.66;;;14.32;100.00
13314;BME280;6725;48.112;11.604;2023-04-19T09:50:34;95370.44;;;14.81;100.00
13314;BME280;6725;48.112;11.604;2023-04-19T09:53:01;95384.56;;;15.12;100.00
13314;BME280;6725;48.112;11.604;2023-04-19T09:55:27;95386.28;;;15.38;100.00
13314;BME280;6725;48.112;11.604;2023-04-19T09:57:53;95394.91;;;15.52;100.00
13314;BME280;6725;48.112;11.604;2023-04-19T10:00:19;95397.56;;;15.84;100.00
13314;BME280;6725;48.112;11.604;2023-04-19T10:02:46;95403.25;;;15.77;100.00
13314;BME280;6725;48.112;11.604;2023-04-19T10:05:19;95404.81;;;15.50;100.00
13314;BME280;6725;48.112;11.604;2023-04-19T10:07:45;95405.41;;;15.57;100.00
13314;BME280;6725;48.112;11.604;2023-04-19T10:10:14;95403.19;;;15.81;100.00
13314;BME280;6725;48.112;11.604;2023-04-19T10:12:41;95406.94;;;15.58;100.00
13314;BME280;6725;48.112;11.604;2023-04-19T10:15:08;95397.31;;;15.34;100.00
13314;BME280;6725;48.112;11.604;2023-04-19T10:17:35;95399.94;;;15.25;100.00
13314;BME280;6725;48.112;11.604;2023-04-19T10:20:05;95405.44;;;15.25;100.00
13314;BME280;6725;48.112;11.604;2023-04-19T10:22:34;95405.13;;;15.07;100.00
13314;BME280;6725;48.112;11.604;2023-04-19T10:25:08;95399.78;;;15.00;100.00
13314;BME280;6725;48.112;11.604;2023-04-19T10:27:36;95396.50;;;15.05;100.00
13314;BME280;6725;48.112;11.604;2023-04-19T10:30:02;95393.50;;;15.00;100.00
13314;BME280;6725;48.112;11.604;2023-04-19T10:32:40;95383.38;;;14.81;100.00
13314;BME280;6725;48.112;11.604;2023-04-19T10:35:19;95382.78;;;14.89;100.00
13314;BME280;6725;48.112;11.604;2023-04-19T10:38:08;95382.44;;;14.71;100.00
13314;BME280;6725;48.112;11.604;2023-04-19T10:40:57;95378.00;;;14.77;100.00
13314;BME280;6725;48.112;11.604;2023-04-19T10:43:34;95380.13;;;14.54;100.00
13314;BME280;6725;48.112;11.604;2023-04-19T10:51:01;95368.81;;;13.81;100.00
13314;BME280;6725;48.112;11.604;2023-04-19T10:56:07;95363.75;;;13.40;100.00
13314;BME280;6725;48.112;11.604;2023-04-19T11:04:02;95311.38;;;12.23;100.00
13314;BME280;6725;48.112;11.604;2023-04-19T11:06:27;95289.56;;;11.93;100.00
13314;BME280;6725;48.112;11.604;2023-04-19T11:08:53;95278.44;;;11.80;100.00
13314;BME280;6725;48.112;11.604;2023-04-19T11:11:19;95256.81;;;11.63;100.00
13314;BME280;6725;48.112;11.604;2023-04-19T11:13:49;95236.63;;;11.50;100.00
13314;BME280;6725;48.112;11.604;2023-04-19T11:16:14;95225.09;;;11.39;100.00
13314;BME280;6725;48.112;11.604;2023-04-19T11:18:40;95215.28;;;11.15;100.00
13314;BME280;6725;48.112;11.604;2023-04-19T11:21:05;95208.31;;;11.10;100.00
13314;BME280;6725;48.112;11.604;2023-04-19T11:23:31;95202.03;;;11.13;100.00
13314;BME280;6725;48.112;11.604;2023-04-19T11:25:57;95194.22;;;11.12;100.00
13314;BME280;6725;48.112;11.604;2023-04-19T11:28:22;95177.84;;;11.12;100.00
13314;BME280;6725;48.112;11.604;2023-04-19T11:30:48;95170.00;;;11.14;100.00
13314;BME280;6725;48.112;11.604;2023-04-19T11:33:14;95160.91;;;10.94;100.00
13314;BME280;6725;48.112;11.604;2023-04-19T11:35:42;95151.50;;;10.95;100.00
13314;BME280;6725;48.112;11.604;2023-04-19T11:38:07;95128.13;;;10.94;100.00
13314;BME280;6725;48.112;11.604;2023-04-19T11:40:33;95118.88;;;10.84;100.00
13314;BME280;6725;48.112;11.604;2023-04-19T11:43:00;95091.50;;;10.88;100.00
13314;BME280;6725;48.112;11.604;2023-04-19T11:45:34;95071.25;;;10.85;100.00
13314;BME280;6725;48.112;11.604;2023-04-19T11:48:01;95071.44;;;10.75;100.00
13314;BME280;6725;48.112;11.604;2023-04-19T11:50:36;95050.34;;;10.75;100.00
13314;BME280;6725;48.112;11.604;2023-04-19T11:53:20;95047.13;;;10.54;100.00
13314;BME280;6725;48.112;11.604;2023-04-19T12:01:08;94991.22;;;10.05;100.00
13314;BME280;6725;48.112;11.604;2023-04-19T12:03:38;94961.31;;;9.98;100.00
13314;BME280;6725;48.112;11.604;2023-04-19T12:06:04;94929.75;;;9.97;100.00
13314;BME280;6725;48.112;11.604;2023-04-19T12:08:35;94899.31;;;10.02;100.00
13314;BME280;6725;48.112;11.604;2023-04-19T12:11:02;94858.75;;;10.07;100.00
13314;BME280;6725;48.112;11.604;2023-04-19T12:13:28;94840.44;;;10.04;100.00
13314;BME280;6725;48.112;11.604;2023-04-19T12:15:55;94822.94;;;10.02;100.00
13314;BME280;6725;48.112;11.604;2023-04-19T12:18:21;94815.28;;;9.93;100.00
13314;BME280;6725;48.112;11.604;2023-04-19T12:20:48;94817.28;;;9.89;100.00
13314;BME280;6725;48.112;11.604;2023-04-19T12:23:14;94809.97;;;9.83;100.00
13314;BME280;6725;48.112;11.604;2023-04-19T12:25:40;94772.81;;;9.92;100.00
13314;BME280;6725;48.112;11.604;2023-04-19T12:28:06;94745.91;;;9.94;100.00
13314;BME280;6725;48.112;11.604;2023-04-19T12:30:32;94735.41;;;9.70;100.00
13314;BME280;6725;48.112;11.604;2023-04-19T12:32:58;94704.41;;;9.83;100.00
13314;BME280;6725;48.112;11.604;2023-04-19T12:35:27;94727.84;;;9.77;100.00
13314;BME280;6725;48.112;11.604;2023-04-19T12:37:55;94699.06;;;9.76;100.00
13314;BME280;6725;48.112;11.604;2023-04-19T12:40:21;94665.63;;;9.72;100.00
13314;BME280;6725;48.112;11.604;2023-04-19T12:42:47;94590.94;;;9.89;100.00
13314;BME280;6725;48.112;11.604;2023-04-19T12:45:13;94554.66;;;9.73;100.00
13314;BME280;6725;48.112;11.604;2023-04-19T12:47:39;94542.75;;;9.40;100.00
13314;BME280;6725;48.112;11.604;2023-04-19T12:50:06;94524.19;;;9.35;100.00
13314;BME280;6725;48.112;11.604;2023-04-19T12:52:32;94493.16;;;9.29;100.00
13314;BME280;6725;48.112;11.604;2023-04-19T12:54:57;94474.59;;;9.01;100.00
13314;BME280;6725;48.112;11.604;2023-04-19T12:57:23;94448.66;;;8.93;100.00
13314;BME280;6725;48.112;11.604;2023-04-19T12:59:48;94419.28;;;8.85;100.00
13314;BME280;6725;48.112;11.604;2023-04-19T13:02:14;94400.75;;;8.76;100.00
13314;BME280;6725;48.112;11.604;2023-04-19T13:04:39;94361.53;;;8.74;100.00
13314;BME280;6725;48.112;11.604;2023-04-19T13:07:05;94324.97;;;8.94;100.00
13314;BME280;6725;48.112;11.604;2023-04-19T13:09:30;94211.09;;;8.89;100.00
13314;BME280;6725;48.112;11.604;2023-04-19T13:11:56;94171.75;;;8.94;100.00
13314;BME280;6725;48.112;11.604;2023-04-19T13:14:22;94147.97;;;9.14;100.00